sensor_id;sensor_type;location;lat;lon;timestamp;P1;durP1;ratioP1;P2;durP2;ratioP2
12296;SDS011;6211;49.124;9.152;2023-05-10T00:01:42;0.70;;;0.70;;
12296;SDS011;6211;49.124;9.152;2023-05-10T00:04:09;1.02;;;0.73;;
12296;SDS011;6211;49.124;9.152;2023-05-10T00:06:38;0.88;;;0.82;;
12296;SDS011;6211;49.124;9.152;2023-05-10T00:09:05;0.80;;;0.70;;
12296;SDS011;6211;49.124;9.152;2023-05-10T00:11:32;0.90;;;0.90;;
12296;SDS011;6211;49.124;9.152;2023-05-10T00:13:59;0.73;;;0.73;;
12296;SDS011;6211;49.124;9.152;2023-05-10T00:16:26;0.82;;;0.82;;
12296;SDS011;6211;49.124;9.152;2023-05-10T00:18:53;0.90;;;0.90;;
12296;SDS011;6211;49.124;9.152;2023-05-10T00:21:20;1.00;;;1.00;;
12296;SDS011;6211;49.124;9.152;2023-05-10T00:23:49;1.00;;;1.00;;
12296;SDS011;6211;49.124;9.152;2023-05-10T00:26:16;0.95;;;0.95;;
12296;SDS011;6211;49.124;9.152;2023-05-10T00:28:43;1.27;;;1.17;;
12296;SDS011;6211;49.124;9.152;2023-05-10T00:31:10;1.25;;;1.15;;
12296;SDS011;6211;49.124;9.152;2023-05-10T00:33:37;1.20;;;1.10;;
12296;SDS011;6211;49.124;9.152;2023-05-10T00:36:05;2.75;;;1.15;;
12296;SDS011;6211;49.124;9.152;2023-05-10T00:38:33;1.70;;;1.60;;
12296;SDS011;6211;49.124;9.152;2023-05-10T00:41:01;2.70;;;1.15;;
12296;SDS011;6211;49.124;9.152;2023-05-10T00:43:29;1.30;;;1.20;;
12296;SDS011;6211;49.124;9.152;2023-05-10T00:45:56;1.30;;;1.20;;
12296;SDS011;6211;49.124;9.152;2023-05-10T00:48:24;1.25;;;1.23;;
12296;SDS011;6211;49.124;9.152;2023-05-10T00:50:51;1.33;;;1.23;;
12296;SDS011;6211;49.124;9.152;2023-05-10T00:53:18;1.20;;;1.10;;
12296;SDS011;6211;49.124;9.152;2023-05-10T00:55:45;1.38;;;1.23;;
12296;SDS011;6211;49.124;9.152;2023-05-10T00:58:14;1.38;;;1.25;;
12296;SDS011;6211;49.124;9.152;2023-05-10T01:00:41;1.42;;;1.25;;
12296;SDS011;6211;49.124;9.152;2023-05-10T01:03:09;1.30;;;1.20;;
12296;SDS011;6211;49.124;9.152;2023-05-10T01:05:37;1.40;;;1.30;;
12296;SDS011;6211;49.124;9.152;2023-05-10T01:08:04;1.50;;;1.30;;
12296;SDS011;6211;49.124;9.152;2023-05-10T01:10:31;1.33;;;1.20;;
12296;SDS011;6211;49.124;9.152;2023-05-10T01:12:58;1.30;;;1.20;;
12296;SDS011;6211;49.124;9.152;2023-05-10T01:15:27;1.45;;;1.35;;
12296;SDS011;6211;49.124;9.152;2023-05-10T01:17:54;1.25;;;1.20;;
12296;SDS011;6211;49.124;9.152;2023-05-10T01:20:22;1.48;;;1.38;;
12296;SDS011;6211;49.124;9.152;2023-05-10T01:22:59;1.38;;;1.27;;
12296;SDS011;6211;49.124;9.152;2023-05-10T01:25:47;1.80;;;1.48;;
12296;SDS011;6211;49.124;9.152;2023-05-10T01:28:33;5.40;;;2.00;;
12296;SDS011;6211;49.124;9.152;2023-05-10T01:31:28;1.30;;;1.20;;
12296;SDS011;6211;49.124;9.152;2023-05-10T01:33:59;1.42;;;1.33;;
12296;SDS011;6211;49.124;9.152;2023-05-10T01:36:29;1.85;;;1.65;;
12296;SDS011;6211;49.124;9.152;2023-05-10T01:38:59;1.45;;;1.35;;
12296;SDS011;6211;49.124;9.152;2023-05-10T01:41:30;1.83;;;1.63;;
12296;SDS011;6211;49.124;9.152;2023-05-10T01:44:01;1.90;;;1.80;;
12296;SDS011;6211;49.124;9.152;2023-05-10T01:46:31;4.72;;;1.98;;
12296;SDS011;6211;49.124;9.152;2023-05-10T01:49:01;2.92;;;1.60;;
12296;SDS011;6211;49.124;9.152;2023-05-10T01:51:31;4.28;;;1.75;;
12296;SDS011;6211;49.124;9.152;2023-05-10T01:54:00;1.58;;;1.48;;
12296;SDS011;6211;49.124;9.152;2023-05-10T01:56:29;1.90;;;1.80;;
12296;SDS011;6211;49.124;9.152;2023-05-10T01:58:57;1.55;;;1.45;;
12296;SDS011;6211;49.124;9.152;2023-05-10T02:01:25;2.67;;;2.00;;
12296;SDS011;6211;49.124;9.152;2023-05-10T02:03:53;2.60;;;1.92;;
12296;SDS011;6211;49.124;9.152;2023-05-10T02:06:22;1.50;;;1.40;;
12296;SDS011;6211;49.124;9.152;2023-05-10T02:08:50;1.90;;;1.70;;
12296;SDS011;6211;49.124;9.152;2023-05-10T02:11:18;1.50;;;1.40;;
12296;SDS011;6211;49.124;9.152;2023-05-10T02:13:47;1.40;;;1.30;;
12296;SDS011;6211;49.124;9.152;2023-05-10T02:16:14;2.80;;;1.85;;
12296;SDS011;6211;49.124;9.152;2023-05-10T02:18:43;1.60;;;1.40;;
12296;SDS011;6211;49.124;9.152;2023-05-10T02:21:10;1.77;;;1.67;;
12296;SDS011;6211;49.124;9.152;2023-05-10T02:23:39;1.90;;;1.75;;
12296;SDS011;6211;49.124;9.152;2023-05-10T02:26:06;1.73;;;1.63;;
12296;SDS011;6211;49.124;9.152;2023-05-10T02:28:34;1.58;;;1.38;;
12296;SDS011;6211;49.124;9.152;2023-05-10T02:31:02;2.08;;;1.73;;
12296;SDS011;6211;49.124;9.152;2023-05-10T02:33:30;2.75;;;1.65;;
12296;SDS011;6211;49.124;9.152;2023-05-10T02:35:58;1.83;;;1.52;;
12296;SDS011;6211;49.124;9.152;2023-05-10T02:38:25;1.75;;;1.63;;
12296;SDS011;6211;49.124;9.152;2023-05-10T02:40:54;1.58;;;1.48;;
12296;SDS011;6211;49.124;9.152;2023-05-10T02:43:22;1.75;;;1.65;;
12296;SDS011;6211;49.124;9.152;2023-05-10T02:45:49;2.33;;;1.63;;
12296;SDS011;6211;49.124;9.152;2023-05-10T02:48:16;2.72;;;1.25;;
12296;SDS011;6211;49.124;9.152;2023-05-10T02:50:44;1.38;;;1.27;;
12296;SDS011;6211;49.124;9.152;2023-05-10T02:53:18;2.22;;;1.75;;
12296;SDS011;6211;49.124;9.152;2023-05-10T02:55:47;1.67;;;1.58;;
12296;SDS011;6211;49.124;9.152;2023-05-10T02:58:17;2.13;;;1.30;;
12296;SDS011;6211;49.124;9.152;2023-05-10T03:00:44;1.50;;;1.40;;
12296;SDS011;6211;49.124;9.152;2023-05-10T03:03:11;2.17;;;1.70;;
12296;SDS011;6211;49.124;9.152;2023-05-10T03:05:38;1.73;;;1.63;;
12296;SDS011;6211;49.124;9.152;2023-05-10T03:08:05;1.67;;;1.58;;
12296;SDS011;6211;49.124;9.152;2023-05-10T03:10:33;1.92;;;1.83;;
12296;SDS011;6211;49.124;9.152;2023-05-10T03:13:06;1.83;;;1.73;;
12296;SDS011;6211;49.124;9.152;2023-05-10T03:15:40;1.52;;;1.42;;
12296;SDS011;6211;49.124;9.152;2023-05-10T03:18:09;2.55;;;1.80;;
12296;SDS011;6211;49.124;9.152;2023-05-10T03:20:41;2.08;;;1.77;;
12296;SDS011;6211;49.124;9.152;2023-05-10T03:23:11;2.08;;;1.90;;
12296;SDS011;6211;49.124;9.152;2023-05-10T03:25:39;2.25;;;2.05;;
12296;SDS011;6211;49.124;9.152;2023-05-10T03:28:08;2.10;;;1.90;;
12296;SDS011;6211;49.124;9.152;2023-05-10T03:30:35;2.00;;;1.88;;
12296;SDS011;6211;49.124;9.152;2023-05-10T03:33:08;2.20;;;2.00;;
12296;SDS011;6211;49.124;9.152;2023-05-10T03:35:35;2.20;;;2.00;;
12296;SDS011;6211;49.124;9.152;2023-05-10T03:38:02;2.40;;;2.20;;
12296;SDS011;6211;49.124;9.152;2023-05-10T03:40:30;2.10;;;1.90;;
12296;SDS011;6211;49.124;9.152;2023-05-10T03:42:57;2.72;;;2.50;;
12296;SDS011;6211;49.124;9.152;2023-05-10T03:45:24;1.90;;;1.80;;
12296;SDS011;6211;49.124;9.152;2023-05-10T03:47:51;2.17;;;1.98;;
12296;SDS011;6211;49.124;9.152;2023-05-10T03:50:20;2.53;;;2.33;;
12296;SDS011;6211;49.124;9.152;2023-05-10T03:52:47;2.65;;;2.20;;
12296;SDS011;6211;49.124;9.152;2023-05-10T03:55:14;2.78;;;2.20;;
12296;SDS011;6211;49.124;9.152;2023-05-10T03:57:42;2.53;;;2.33;;
12296;SDS011;6211;49.124;9.152;2023-05-10T04:00:09;5.15;;;2.90;;
12296;SDS011;6211;49.124;9.152;2023-05-10T04:02:37;3.33;;;2.45;;
12296;SDS011;6211;49.124;9.152;2023-05-10T04:05:04;2.85;;;2.28;;
12296;SDS011;6211;49.124;9.152;2023-05-10T04:07:33;2.83;;;2.53;;
12296;SDS011;6211;49.124;9.152;2023-05-10T04:10:00;4.57;;;1.98;;
12296;SDS011;6211;49.124;9.152;2023-05-10T04:12:27;2.80;;;2.30;;
12296;SDS011;6211;49.124;9.152;2023-05-10T04:14:54;2.88;;;2.60;;
12296;SDS011;6211;49.124;9.152;2023-05-10T04:17:21;4.95;;;3.08;;
12296;SDS011;6211;49.124;9.152;2023-05-10T04:19:48;2.90;;;2.50;;
12296;SDS011;6211;49.124;9.152;2023-05-10T04:22:18;2.53;;;2.22;;
12296;SDS011;6211;49.124;9.152;2023-05-10T04:24:46;3.38;;;3.03;;
12296;SDS011;6211;49.124;9.152;2023-05-10T04:27:13;2.97;;;2.67;;
12296;SDS011;6211;49.124;9.152;2023-05-10T04:29:40;4.10;;;3.20;;
12296;SDS011;6211;49.124;9.152;2023-05-10T04:32:07;4.20;;;3.00;;
12296;SDS011;6211;49.124;9.152;2023-05-10T04:34:35;3.33;;;2.55;;
12296;SDS011;6211;49.124;9.152;2023-05-10T04:37:02;4.40;;;3.08;;
12296;SDS011;6211;49.124;9.152;2023-05-10T04:39:29;3.70;;;3.28;;
12296;SDS011;6211;49.124;9.152;2023-05-10T04:41:58;3.28;;;2.95;;
12296;SDS011;6211;49.124;9.152;2023-05-10T04:44:25;4.38;;;3.42;;
12296;SDS011;6211;49.124;9.152;2023-05-10T04:46:52;4.97;;;3.03;;
12296;SDS011;6211;49.124;9.152;2023-05-10T04:49:19;2.80;;;2.60;;
12296;SDS011;6211;49.124;9.152;2023-05-10T04:51:47;4.18;;;3.33;;
12296;SDS011;6211;49.124;9.152;2023-05-10T04:54:17;3.53;;;2.90;;
12296;SDS011;6211;49.124;9.152;2023-05-10T04:56:44;3.03;;;2.83;;
12296;SDS011;6211;49.124;9.152;2023-05-10T04:59:12;6.53;;;3.38;;
12296;SDS011;6211;49.124;9.152;2023-05-10T05:01:39;4.25;;;2.83;;
12296;SDS011;6211;49.124;9.152;2023-05-10T05:04:07;3.55;;;3.08;;
12296;SDS011;6211;49.124;9.152;2023-05-10T05:06:34;4.30;;;3.33;;
12296;SDS011;6211;49.124;9.152;2023-05-10T05:09:01;3.95;;;3.28;;
12296;SDS011;6211;49.124;9.152;2023-05-10T05:11:28;3.50;;;3.13;;
12296;SDS011;6211;49.124;9.152;2023-05-10T05:13:55;3.85;;;3.17;;
12296;SDS011;6211;49.124;9.152;2023-05-10T05:16:25;4.32;;;3.28;;
12296;SDS011;6211;49.124;9.152;2023-05-10T05:18:52;3.83;;;2.95;;
12296;SDS011;6211;49.124;9.152;2023-05-10T05:21:19;4.20;;;3.13;;
12296;SDS011;6211;49.124;9.152;2023-05-10T05:23:51;4.20;;;3.05;;
12296;SDS011;6211;49.124;9.152;2023-05-10T05:26:18;7.13;;;3.05;;
12296;SDS011;6211;49.124;9.152;2023-05-10T05:28:46;5.00;;;3.30;;
12296;SDS011;6211;49.124;9.152;2023-05-10T05:31:13;3.03;;;2.60;;
12296;SDS011;6211;49.124;9.152;2023-05-10T05:33:42;2.72;;;2.53;;
12296;SDS011;6211;49.124;9.152;2023-05-10T05:36:09;3.33;;;2.80;;
12296;SDS011;6211;49.124;9.152;2023-05-10T05:38:36;10.40;;;3.20;;
12296;SDS011;6211;49.124;9.152;2023-05-10T05:41:03;2.97;;;2.60;;
12296;SDS011;6211;49.124;9.152;2023-05-10T05:43:31;3.38;;;3.00;;
12296;SDS011;6211;49.124;9.152;2023-05-10T05:46:00;4.15;;;3.00;;
12296;SDS011;6211;49.124;9.152;2023-05-10T05:48:28;2.63;;;2.42;;
12296;SDS011;6211;49.124;9.152;2023-05-10T05:50:57;3.47;;;2.58;;
12296;SDS011;6211;49.124;9.152;2023-05-10T05:53:24;3.00;;;2.50;;
12296;SDS011;6211;49.124;9.152;2023-05-10T05:55:52;3.10;;;2.70;;
12296;SDS011;6211;49.124;9.152;2023-05-10T05:58:20;4.05;;;2.30;;
12296;SDS011;6211;49.124;9.152;2023-05-10T06:00:47;3.03;;;2.75;;
12296;SDS011;6211;49.124;9.152;2023-05-10T06:03:14;4.32;;;2.88;;
12296;SDS011;6211;49.124;9.152;2023-05-10T06:05:41;3.55;;;2.42;;
12296;SDS011;6211;49.124;9.152;2023-05-10T06:08:09;4.65;;;2.85;;
12296;SDS011;6211;49.124;9.152;2023-05-10T06:10:37;8.18;;;3.10;;
12296;SDS011;6211;49.124;9.152;2023-05-10T06:13:04;3.08;;;2.78;;
12296;SDS011;6211;49.124;9.152;2023-05-10T06:15:31;5.18;;;3.28;;
12296;SDS011;6211;49.124;9.152;2023-05-10T06:17:58;3.28;;;2.97;;
12296;SDS011;6211;49.124;9.152;2023-05-10T06:20:25;3.33;;;3.03;;
12296;SDS011;6211;49.124;9.152;2023-05-10T06:22:53;3.65;;;2.67;;
12296;SDS011;6211;49.124;9.152;2023-05-10T06:25:21;2.33;;;2.13;;
12296;SDS011;6211;49.124;9.152;2023-05-10T06:27:48;7.93;;;2.63;;
12296;SDS011;6211;49.124;9.152;2023-05-10T06:30:15;2.60;;;2.05;;
12296;SDS011;6211;49.124;9.152;2023-05-10T06:32:42;2.63;;;2.42;;
12296;SDS011;6211;49.124;9.152;2023-05-10T06:35:10;2.03;;;1.80;;
12296;SDS011;6211;49.124;9.152;2023-05-10T06:37:37;2.95;;;2.38;;
12296;SDS011;6211;49.124;9.152;2023-05-10T06:40:05;2.22;;;2.05;;
12296;SDS011;6211;49.124;9.152;2023-05-10T06:42:33;4.85;;;1.65;;
12296;SDS011;6211;49.124;9.152;2023-05-10T06:45:00;1.88;;;1.73;;
12296;SDS011;6211;49.124;9.152;2023-05-10T06:47:27;2.17;;;1.88;;
12296;SDS011;6211;49.124;9.152;2023-05-10T06:49:55;1.75;;;1.60;;
12296;SDS011;6211;49.124;9.152;2023-05-10T06:52:22;3.53;;;2.00;;
12296;SDS011;6211;49.124;9.152;2023-05-10T06:54:49;2.75;;;1.80;;
12296;SDS011;6211;49.124;9.152;2023-05-10T06:57:16;1.83;;;1.73;;
12296;SDS011;6211;49.124;9.152;2023-05-10T06:59:45;1.88;;;1.67;;
12296;SDS011;6211;49.124;9.152;2023-05-10T07:02:12;1.90;;;1.80;;
12296;SDS011;6211;49.124;9.152;2023-05-10T07:04:40;1.80;;;1.70;;
12296;SDS011;6211;49.124;9.152;2023-05-10T07:07:07;1.92;;;1.70;;
12296;SDS011;6211;49.124;9.152;2023-05-10T07:09:35;1.65;;;1.55;;
12296;SDS011;6211;49.124;9.152;2023-05-10T07:12:02;1.88;;;1.77;;
12296;SDS011;6211;49.124;9.152;2023-05-10T07:14:29;2.03;;;1.83;;
12296;SDS011;6211;49.124;9.152;2023-05-10T07:16:57;1.70;;;1.60;;
12296;SDS011;6211;49.124;9.152;2023-05-10T07:19:24;1.70;;;1.60;;
12296;SDS011;6211;49.124;9.152;2023-05-10T07:21:52;2.22;;;1.52;;
12296;SDS011;6211;49.124;9.152;2023-05-10T07:24:19;2.17;;;1.70;;
12296;SDS011;6211;49.124;9.152;2023-05-10T07:26:46;1.95;;;1.40;;
12296;SDS011;6211;49.124;9.152;2023-05-10T07:29:13;1.95;;;1.30;;
12296;SDS011;6211;49.124;9.152;2023-05-10T07:31:40;1.55;;;1.45;;
12296;SDS011;6211;49.124;9.152;2023-05-10T07:34:09;1.27;;;1.17;;
12296;SDS011;6211;49.124;9.152;2023-05-10T07:36:36;1.38;;;1.27;;
12296;SDS011;6211;49.124;9.152;2023-05-10T07:39:03;1.08;;;0.98;;
12296;SDS011;6211;49.124;9.152;2023-05-10T07:41:30;1.02;;;0.80;;
12296;SDS011;6211;49.124;9.152;2023-05-10T07:43:57;1.00;;;1.00;;
12296;SDS011;6211;49.124;9.152;2023-05-10T07:46:25;0.90;;;0.90;;
12296;SDS011;6211;49.124;9.152;2023-05-10T07:48:52;1.00;;;1.00;;
12296;SDS011;6211;49.124;9.152;2023-05-10T07:51:33;1.10;;;1.00;;
12296;SDS011;6211;49.124;9.152;2023-05-10T07:54:14;0.90;;;0.90;;
12296;SDS011;6211;49.124;9.152;2023-05-10T07:56:41;1.20;;;0.85;;
12296;SDS011;6211;49.124;9.152;2023-05-10T07:59:14;0.80;;;0.80;;
12296;SDS011;6211;49.124;9.152;2023-05-10T08:01:41;0.85;;;0.80;;
12296;SDS011;6211;49.124;9.152;2023-05-10T08:04:08;0.68;;;0.68;;
12296;SDS011;6211;49.124;9.152;2023-05-10T08:06:37;0.73;;;0.73;;
12296;SDS011;6211;49.124;9.152;2023-05-10T08:09:05;1.50;;;0.60;;
12296;SDS011;6211;49.124;9.152;2023-05-10T08:11:32;0.80;;;0.80;;
12296;SDS011;6211;49.124;9.152;2023-05-10T08:14:00;1.00;;;1.00;;
12296;SDS011;6211;49.124;9.152;2023-05-10T08:16:27;0.80;;;0.80;;
12296;SDS011;6211;49.124;9.152;2023-05-10T08:18:54;2.28;;;0.90;;
12296;SDS011;6211;49.124;9.152;2023-05-10T08:21:21;0.80;;;0.80;;
12296;SDS011;6211;49.124;9.152;2023-05-10T08:23:50;1.05;;;0.80;;
12296;SDS011;6211;49.124;9.152;2023-05-10T08:26:17;0.68;;;0.68;;
12296;SDS011;6211;49.124;9.152;2023-05-10T08:28:45;0.90;;;0.90;;
12296;SDS011;6211;49.124;9.152;2023-05-10T08:31:13;1.00;;;1.00;;
12296;SDS011;6211;49.124;9.152;2023-05-10T08:33:40;0.75;;;0.75;;
12296;SDS011;6211;49.124;9.152;2023-05-10T08:36:07;1.10;;;0.82;;
12296;SDS011;6211;49.124;9.152;2023-05-10T08:38:34;0.68;;;0.68;;
12296;SDS011;6211;49.124;9.152;2023-05-10T08:41:03;0.82;;;0.82;;
12296;SDS011;6211;49.124;9.152;2023-05-10T08:43:31;0.93;;;0.93;;
12296;SDS011;6211;49.124;9.152;2023-05-10T08:45:59;1.10;;;1.10;;
12296;SDS011;6211;49.124;9.152;2023-05-10T08:48:27;1.45;;;1.35;;
12296;SDS011;6211;49.124;9.152;2023-05-10T08:50:55;1.40;;;1.30;;
12296;SDS011;6211;49.124;9.152;2023-05-10T08:53:24;1.13;;;1.02;;
12296;SDS011;6211;49.124;9.152;2023-05-10T08:55:52;5.05;;;1.38;;
12296;SDS011;6211;49.124;9.152;2023-05-10T08:58:21;1.30;;;1.20;;
12296;SDS011;6211;49.124;9.152;2023-05-10T09:00:48;1.50;;;1.02;;
12296;SDS011;6211;49.124;9.152;2023-05-10T09:03:16;2.10;;;1.20;;
12296;SDS011;6211;49.124;9.152;2023-05-10T09:05:44;1.00;;;1.00;;
12296;SDS011;6211;49.124;9.152;2023-05-10T09:08:11;0.90;;;0.90;;
12296;SDS011;6211;49.124;9.152;2023-05-10T09:10:38;0.77;;;0.77;;
12296;SDS011;6211;49.124;9.152;2023-05-10T09:13:07;0.82;;;0.82;;
12296;SDS011;6211;49.124;9.152;2023-05-10T09:15:36;1.30;;;0.80;;
12296;SDS011;6211;49.124;9.152;2023-05-10T09:18:03;0.85;;;0.85;;
12296;SDS011;6211;49.124;9.152;2023-05-10T09:20:30;1.00;;;0.90;;
12296;SDS011;6211;49.124;9.152;2023-05-10T09:22:57;2.63;;;1.10;;
12296;SDS011;6211;49.124;9.152;2023-05-10T09:25:24;1.42;;;1.00;;
12296;SDS011;6211;49.124;9.152;2023-05-10T09:27:52;0.90;;;0.90;;
12296;SDS011;6211;49.124;9.152;2023-05-10T09:30:23;0.65;;;0.65;;
12296;SDS011;6211;49.124;9.152;2023-05-10T09:32:52;0.90;;;0.90;;
12296;SDS011;6211;49.124;9.152;2023-05-10T09:35:20;2.05;;;0.80;;
12296;SDS011;6211;49.124;9.152;2023-05-10T09:37:48;0.80;;;0.80;;
12296;SDS011;6211;49.124;9.152;2023-05-10T09:40:16;1.70;;;1.13;;
12296;SDS011;6211;49.124;9.152;2023-05-10T09:42:50;0.85;;;0.85;;
12296;SDS011;6211;49.124;9.152;2023-05-10T09:45:17;0.73;;;0.70;;
12296;SDS011;6211;49.124;9.152;2023-05-10T09:47:45;1.15;;;0.95;;
12296;SDS011;6211;49.124;9.152;2023-05-10T09:50:14;1.23;;;0.90;;
12296;SDS011;6211;49.124;9.152;2023-05-10T09:52:48;0.70;;;0.70;;
12296;SDS011;6211;49.124;9.152;2023-05-10T09:55:16;0.95;;;0.85;;
12296;SDS011;6211;49.124;9.152;2023-05-10T09:57:43;0.80;;;0.80;;
12296;SDS011;6211;49.124;9.152;2023-05-10T10:00:11;0.90;;;0.90;;
12296;SDS011;6211;49.124;9.152;2023-05-10T10:05:11;0.60;;;0.60;;
12296;SDS011;6211;49.124;9.152;2023-05-10T10:07:39;0.70;;;0.60;;
12296;SDS011;6211;49.124;9.152;2023-05-10T10:10:07;0.73;;;0.73;;
12296;SDS011;6211;49.124;9.152;2023-05-10T10:12:37;0.60;;;0.60;;
12296;SDS011;6211;49.124;9.152;2023-05-10T10:15:04;0.68;;;0.68;;
12296;SDS011;6211;49.124;9.152;2023-05-10T10:17:32;0.60;;;0.60;;
12296;SDS011;6211;49.124;9.152;2023-05-10T10:19:59;0.65;;;0.65;;
12296;SDS011;6211;49.124;9.152;2023-05-10T10:22:26;0.60;;;0.60;;
12296;SDS011;6211;49.124;9.152;2023-05-10T10:24:55;0.70;;;0.70;;
12296;SDS011;6211;49.124;9.152;2023-05-10T10:27:23;1.02;;;0.93;;
12296;SDS011;6211;49.124;9.152;2023-05-10T10:29:55;1.00;;;0.98;;
12296;SDS011;6211;49.124;9.152;2023-05-10T10:32:26;0.75;;;0.75;;
12296;SDS011;6211;49.124;9.152;2023-05-10T10:34:56;0.80;;;0.80;;
12296;SDS011;6211;49.124;9.152;2023-05-10T10:37:23;0.77;;;0.77;;
12296;SDS011;6211;49.124;9.152;2023-05-10T10:39:50;1.35;;;1.00;;
12296;SDS011;6211;49.124;9.152;2023-05-10T10:45:12;0.95;;;0.88;;
12296;SDS011;6211;49.124;9.152;2023-05-10T10:47:39;0.77;;;0.77;;
12296;SDS011;6211;49.124;9.152;2023-05-10T10:50:08;1.00;;;0.90;;
12296;SDS011;6211;49.124;9.152;2023-05-10T10:52:37;0.70;;;0.70;;
12296;SDS011;6211;49.124;9.152;2023-05-10T10:55:06;1.05;;;0.98;;
12296;SDS011;6211;49.124;9.152;2023-05-10T10:57:42;3.05;;;1.00;;
12296;SDS011;6211;49.124;9.152;2023-05-10T11:00:21;0.60;;;0.60;;
12296;SDS011;6211;49.124;9.152;2023-05-10T11:02:49;0.60;;;0.60;;
12296;SDS011;6211;49.124;9.152;2023-05-10T11:08:11;0.60;;;0.60;;
12296;SDS011;6211;49.124;9.152;2023-05-10T11:10:39;0.65;;;0.65;;
12296;SDS011;6211;49.124;9.152;2023-05-10T11:13:07;0.30;;;0.30;;
12296;SDS011;6211;49.124;9.152;2023-05-10T11:15:36;0.50;;;0.50;;
12296;SDS011;6211;49.124;9.152;2023-05-10T11:18:16;0.50;;;0.50;;
12296;SDS011;6211;49.124;9.152;2023-05-10T11:20:43;0.65;;;0.60;;
12296;SDS011;6211;49.124;9.152;2023-05-10T11:23:12;0.60;;;0.60;;
12296;SDS011;6211;49.124;9.152;2023-05-10T11:25:41;0.60;;;0.60;;
12296;SDS011;6211;49.124;9.152;2023-05-10T11:28:09;0.57;;;0.57;;
12296;SDS011;6211;49.124;9.152;2023-05-10T11:30:37;0.82;;;0.80;;
12296;SDS011;6211;49.124;9.152;2023-05-10T11:33:05;0.70;;;0.70;;
12296;SDS011;6211;49.124;9.152;2023-05-10T11:35:36;5.82;;;0.85;;
12296;SDS011;6211;49.124;9.152;2023-05-10T11:38:05;0.52;;;0.52;;
12296;SDS011;6211;49.124;9.152;2023-05-10T11:40:32;0.40;;;0.40;;
12296;SDS011;6211;49.124;9.152;2023-05-10T11:42:59;0.75;;;0.70;;
12296;SDS011;6211;49.124;9.152;2023-05-10T11:45:26;0.60;;;0.60;;
12296;SDS011;6211;49.124;9.152;2023-05-10T11:47:55;0.57;;;0.57;;
12296;SDS011;6211;49.124;9.152;2023-05-10T11:50:23;0.63;;;0.63;;
12296;SDS011;6211;49.124;9.152;2023-05-10T11:52:51;0.50;;;0.50;;
12296;SDS011;6211;49.124;9.152;2023-05-10T11:55:18;0.50;;;0.50;;
12296;SDS011;6211;49.124;9.152;2023-05-10T11:57:45;0.80;;;0.80;;
12296;SDS011;6211;49.124;9.152;2023-05-10T12:00:13;1.02;;;1.00;;
12296;SDS011;6211;49.124;9.152;2023-05-10T12:02:40;0.73;;;0.73;;
12296;SDS011;6211;49.124;9.152;2023-05-10T12:05:09;0.80;;;0.80;;
12296;SDS011;6211;49.124;9.152;2023-05-10T12:07:36;1.02;;;0.93;;
12296;SDS011;6211;49.124;9.152;2023-05-10T12:10:04;2.70;;;1.25;;
12296;SDS011;6211;49.124;9.152;2023-05-10T12:12:36;0.80;;;0.80;;
12296;SDS011;6211;49.124;9.152;2023-05-10T12:15:04;0.77;;;0.77;;
12296;SDS011;6211;49.124;9.152;2023-05-10T12:17:32;0.57;;;0.57;;
12296;SDS011;6211;49.124;9.152;2023-05-10T12:20:13;0.88;;;0.88;;
12296;SDS011;6211;49.124;9.152;2023-05-10T12:22:41;0.63;;;0.63;;
12296;SDS011;6211;49.124;9.152;2023-05-10T12:25:10;1.08;;;0.70;;
12296;SDS011;6211;49.124;9.152;2023-05-10T12:27:37;1.85;;;1.08;;
12296;SDS011;6211;49.124;9.152;2023-05-10T12:30:05;1.20;;;1.02;;
12296;SDS011;6211;49.124;9.152;2023-05-10T12:32:38;1.38;;;1.00;;
12296;SDS011;6211;49.124;9.152;2023-05-10T12:35:06;1.17;;;0.90;;
12296;SDS011;6211;49.124;9.152;2023-05-10T12:37:34;2.30;;;1.15;;
12296;SDS011;6211;49.124;9.152;2023-05-10T12:40:05;1.75;;;1.00;;
12296;SDS011;6211;49.124;9.152;2023-05-10T12:42:33;1.10;;;1.00;;
12296;SDS011;6211;49.124;9.152;2023-05-10T12:45:01;1.83;;;1.08;;
12296;SDS011;6211;49.124;9.152;2023-05-10T12:47:28;1.77;;;1.00;;
12296;SDS011;6211;49.124;9.152;2023-05-10T12:49:55;0.88;;;0.88;;
12296;SDS011;6211;49.124;9.152;2023-05-10T12:52:23;0.80;;;0.80;;
12296;SDS011;6211;49.124;9.152;2023-05-10T12:54:52;6.40;;;3.60;;
12296;SDS011;6211;49.124;9.152;2023-05-10T12:57:19;1.05;;;1.02;;
12296;SDS011;6211;49.124;9.152;2023-05-10T12:59:46;1.23;;;1.13;;
12296;SDS011;6211;49.124;9.152;2023-05-10T13:02:15;3.75;;;1.27;;
12296;SDS011;6211;49.124;9.152;2023-05-10T13:04:43;1.15;;;1.08;;
12296;SDS011;6211;49.124;9.152;2023-05-10T13:07:11;0.88;;;0.88;;
12296;SDS011;6211;49.124;9.152;2023-05-10T13:09:38;0.90;;;0.90;;
12296;SDS011;6211;49.124;9.152;2023-05-10T13:12:07;2.05;;;0.93;;
12296;SDS011;6211;49.124;9.152;2023-05-10T13:14:34;1.40;;;1.00;;
12296;SDS011;6211;49.124;9.152;2023-05-10T13:17:01;1.10;;;1.00;;
12296;SDS011;6211;49.124;9.152;2023-05-10T13:19:29;2.65;;;1.00;;
12296;SDS011;6211;49.124;9.152;2023-05-10T13:21:56;1.65;;;0.98;;
12296;SDS011;6211;49.124;9.152;2023-05-10T13:24:23;1.08;;;0.98;;
12296;SDS011;6211;49.124;9.152;2023-05-10T13:26:51;1.10;;;1.00;;
12296;SDS011;6211;49.124;9.152;2023-05-10T13:29:19;0.95;;;0.82;;
12296;SDS011;6211;49.124;9.152;2023-05-10T13:31:47;0.95;;;0.90;;
12296;SDS011;6211;49.124;9.152;2023-05-10T13:34:14;3.80;;;0.90;;
12296;SDS011;6211;49.124;9.152;2023-05-10T13:36:41;0.70;;;0.70;;
12296;SDS011;6211;49.124;9.152;2023-05-10T13:39:09;2.35;;;1.10;;
12296;SDS011;6211;49.124;9.152;2023-05-10T13:41:36;1.02;;;0.90;;
12296;SDS011;6211;49.124;9.152;2023-05-10T13:44:03;0.80;;;0.80;;
12296;SDS011;6211;49.124;9.152;2023-05-10T13:46:31;0.50;;;0.50;;
12296;SDS011;6211;49.124;9.152;2023-05-10T13:48:58;2.28;;;0.70;;
12296;SDS011;6211;49.124;9.152;2023-05-10T13:51:29;0.60;;;0.60;;
12296;SDS011;6211;49.124;9.152;2023-05-10T13:53:57;0.70;;;0.70;;
12296;SDS011;6211;49.124;9.152;2023-05-10T13:56:24;0.70;;;0.60;;
12296;SDS011;6211;49.124;9.152;2023-05-10T13:58:51;0.77;;;0.65;;
12296;SDS011;6211;49.124;9.152;2023-05-10T14:01:18;0.47;;;0.47;;
12296;SDS011;6211;49.124;9.152;2023-05-10T14:03:47;2.40;;;0.60;;
12296;SDS011;6211;49.124;9.152;2023-05-10T14:06:14;0.65;;;0.65;;
12296;SDS011;6211;49.124;9.152;2023-05-10T14:08:41;2.00;;;0.50;;
12296;SDS011;6211;49.124;9.152;2023-05-10T14:11:08;0.55;;;0.55;;
12296;SDS011;6211;49.124;9.152;2023-05-10T14:13:35;0.70;;;0.70;;
12296;SDS011;6211;49.124;9.152;2023-05-10T14:16:03;1.90;;;0.63;;
12296;SDS011;6211;49.124;9.152;2023-05-10T14:18:30;0.68;;;0.68;;
12296;SDS011;6211;49.124;9.152;2023-05-10T14:20:58;0.55;;;0.55;;
12296;SDS011;6211;49.124;9.152;2023-05-10T14:23:25;1.08;;;0.68;;
12296;SDS011;6211;49.124;9.152;2023-05-10T14:25:53;2.97;;;0.50;;
12296;SDS011;6211;49.124;9.152;2023-05-10T14:28:20;0.65;;;0.60;;
12296;SDS011;6211;49.124;9.152;2023-05-10T14:30:48;0.70;;;0.70;;
12296;SDS011;6211;49.124;9.152;2023-05-10T14:33:16;0.82;;;0.70;;
12296;SDS011;6211;49.124;9.152;2023-05-10T14:35:43;0.73;;;0.60;;
12296;SDS011;6211;49.124;9.152;2023-05-10T14:38:12;0.50;;;0.50;;
12296;SDS011;6211;49.124;9.152;2023-05-10T14:40:40;0.52;;;0.50;;
12296;SDS011;6211;49.124;9.152;2023-05-10T14:43:07;0.43;;;0.43;;
12296;SDS011;6211;49.124;9.152;2023-05-10T14:45:34;0.98;;;0.65;;
12296;SDS011;6211;49.124;9.152;2023-05-10T14:48:01;0.60;;;0.60;;
12296;SDS011;6211;49.124;9.152;2023-05-10T14:50:29;0.80;;;0.80;;
12296;SDS011;6211;49.124;9.152;2023-05-10T14:52:56;0.65;;;0.65;;
12296;SDS011;6211;49.124;9.152;2023-05-10T14:55:25;0.50;;;0.50;;
12296;SDS011;6211;49.124;9.152;2023-05-10T14:57:52;1.05;;;0.88;;
12296;SDS011;6211;49.124;9.152;2023-05-10T15:00:20;0.65;;;0.60;;
12296;SDS011;6211;49.124;9.152;2023-05-10T15:02:47;0.52;;;0.52;;
12296;SDS011;6211;49.124;9.152;2023-05-10T15:05:14;1.00;;;0.65;;
12296;SDS011;6211;49.124;9.152;2023-05-10T15:07:42;0.60;;;0.60;;
12296;SDS011;6211;49.124;9.152;2023-05-10T15:10:09;0.55;;;0.55;;
12296;SDS011;6211;49.124;9.152;2023-05-10T15:12:38;0.88;;;0.68;;
12296;SDS011;6211;49.124;9.152;2023-05-10T15:15:05;0.50;;;0.43;;